createdAt,value
2023-02-05T00:02:50.906Z,5.17
2023-02-05T00:12:56.772Z,5.43
2023-02-05T00:23:10.819Z,5.50
2023-02-05T00:33:14.751Z,5.97
2023-02-05T00:43:16.852Z,5.13
2023-02-05T00:53:24.162Z,5.10
2023-02-05T01:03:29.931Z,5.57
2023-02-05T01:13:40.219Z,5.00
2023-02-05T01:33:50.580Z,4.90
2023-02-05T01:44:25.252Z,5.13
2023-02-05T01:54:29.954Z,4.17
2023-02-05T02:04:39.118Z,4.70
2023-02-05T02:14:49.722Z,4.40
2023-02-05T02:25:38.025Z,4.47
2023-02-05T02:36:07.832Z,3.90
2023-02-05T02:46:37.005Z,4.07
2023-02-05T02:56:40.622Z,4.37
2023-02-05T03:06:46.099Z,3.13
2023-02-05T03:16:50.794Z,3.40
2023-02-05T03:26:52.994Z,2.43
2023-02-05T03:37:12.178Z,3.23
2023-02-05T03:47:29.062Z,3.60
2023-02-05T03:57:49.245Z,3.17
2023-02-05T04:07:52.815Z,3.87
2023-02-05T04:18:03.043Z,4.23
2023-02-05T04:28:06.947Z,3.57
2023-02-05T04:38:11.960Z,3.53
2023-02-05T04:48:16.763Z,3.73
2023-02-05T04:58:18.964Z,2.50
2023-02-05T05:08:23.402Z,3.23
2023-02-05T05:18:28.255Z,4.00
2023-02-05T05:28:34.813Z,3.40
2023-02-05T05:38:37.051Z,3.70
2023-02-05T05:48:41.643Z,3.20
2023-02-05T05:58:50.264Z,4.20
2023-02-05T06:08:52.335Z,3.63
2023-02-05T06:18:59.864Z,4.57
2023-02-05T06:29:04.870Z,4.07
2023-02-05T06:39:06.993Z,3.60
2023-02-05T06:49:09.112Z,4.23
2023-02-05T06:59:13.422Z,3.97
2023-02-05T07:09:22.785Z,3.77
2023-02-05T07:19:27.976Z,2.27
2023-02-05T07:29:32.580Z,2.33
2023-02-05T07:39:35.597Z,4.67
2023-02-05T07:49:40.312Z,3.47
2023-02-05T07:59:46.263Z,4.93
2023-02-05T08:09:51.141Z,5.27
2023-02-05T08:19:58.483Z,4.70
2023-02-05T08:30:12.992Z,4.27
2023-02-05T08:40:18.178Z,5.00
2023-02-05T08:50:20.534Z,4.93
2023-02-05T09:00:22.702Z,5.07
2023-02-05T09:10:30.960Z,4.90
2023-02-05T09:20:36.070Z,5.10
2023-02-05T09:30:43.937Z,4.97
2023-02-05T09:41:05.863Z,3.60
2023-02-05T09:51:12.775Z,5.60
2023-02-05T10:01:22.865Z,4.80
2023-02-05T10:11:40.886Z,3.03
2023-02-05T10:21:56.584Z,2.80
2023-02-05T10:32:24.984Z,2.17
2023-02-05T10:42:34.520Z,3.37
2023-02-05T10:52:38.844Z,4.20
2023-02-05T11:02:43.353Z,4.23
2023-02-05T11:12:53.422Z,3.67
2023-02-05T11:23:18.393Z,4.50
2023-02-05T11:33:23.403Z,4.27
2023-02-05T11:43:51.317Z,3.63
2023-02-05T11:53:58.293Z,3.97
2023-02-05T12:04:03.577Z,3.47
2023-02-05T12:14:17.095Z,3.90
2023-02-05T12:24:43.612Z,4.13
2023-02-05T12:35:23.862Z,3.20
2023-02-05T12:45:47.961Z,2.57
2023-02-05T12:56:27.214Z,3.43
2023-02-05T13:06:55.779Z,3.33
2023-02-05T13:17:20.169Z,3.63
2023-02-05T13:27:45.852Z,3.70
2023-02-05T13:38:14.624Z,3.80
2023-02-05T13:48:34.580Z,3.50
2023-02-05T13:58:48.450Z,2.97
2023-02-05T14:08:52.395Z,3.50
2023-02-05T14:19:01.047Z,2.50
2023-02-05T14:29:07.914Z,3.73
2023-02-05T14:39:32.893Z,3.57
2023-02-05T14:49:47.454Z,2.77
2023-02-05T15:00:01.786Z,4.40
2023-02-05T15:10:07.860Z,3.20
2023-02-05T15:20:22.839Z,3.17
2023-02-05T15:30:34.123Z,3.47
2023-02-05T15:40:51.903Z,3.20
2023-02-05T15:50:58.648Z,3.10
2023-02-05T16:01:05.365Z,3.10
2023-02-05T16:11:07.694Z,3.30
2023-02-05T16:21:29.368Z,3.17
2023-02-05T16:31:33.227Z,3.07
2023-02-05T16:41:42.460Z,4.82
2023-02-05T16:51:49.859Z,5.63
2023-02-05T17:01:53.035Z,5.30
2023-02-05T17:11:57.654Z,4.85
2023-02-05T17:22:24.532Z,4.57
2023-02-05T17:32:27.245Z,3.37
2023-02-05T17:42:31.381Z,4.53
2023-02-05T17:52:35.942Z,9.35
2023-02-05T18:02:40.886Z,7.03
2023-02-05T18:12:47.420Z,10.50
2023-02-05T18:22:56.548Z,7.00
2023-02-05T18:33:07.916Z,6.93
2023-02-05T18:43:13.501Z,7.60
2023-02-05T18:53:20.216Z,7.20
2023-02-05T19:03:25.047Z,8.40
2023-02-05T19:13:32.104Z,8.57
2023-02-05T19:23:36.530Z,8.93
2023-02-05T19:33:44.216Z,8.03
2023-02-05T19:43:55.231Z,9.60
2023-02-05T19:54:03.269Z,9.73
2023-02-05T20:04:19.085Z,11.10
2023-02-05T20:14:24.138Z,9.77
2023-02-05T20:24:38.799Z,11.13
2023-02-05T20:34:57.314Z,12.33
2023-02-05T20:45:04.473Z,12.43
2023-02-05T20:55:11.250Z,11.93
2023-02-05T21:05:31.083Z,11.77
2023-02-05T21:15:39.160Z,11.43
2023-02-05T21:25:57.020Z,11.90
2023-02-05T21:36:07.403Z,12.37
2023-02-05T21:46:13.282Z,13.17
2023-02-05T21:56:19.172Z,13.87
2023-02-05T22:06:30.150Z,15.33
2023-02-05T22:16:36.486Z,14.67
2023-02-05T22:26:46.315Z,15.23
2023-02-05T22:36:53.563Z,15.40
2023-02-05T22:46:58.194Z,15.97
2023-02-05T22:57:00.262Z,15.60
2023-02-05T23:07:04.441Z,17.17
2023-02-05T23:17:08.716Z,17.63
2023-02-05T23:27:13.230Z,16.27
2023-02-05T23:37:16.255Z,15.27
2023-02-05T23:47:18.323Z,16.37
2023-02-05T23:57:28.459Z,17.60
